Time;durP1;ratioP1;P1;durP2;ratioP2;P2;SDS_P1;SDS_P2;PMS_P1;PMS_P2;Temp;Humidity;BMP_temperature;BMP_pressure;BME280_temperature;BME280_humidity;BME280_pressure;Samples;Min_cycle;Max_cycle;Signal;HPM_P1;HPM_P2
2021/05/14 00:00:00;;;;;;;5.85;5.03;;;13.00;88.20;;;;;;2080642;28;20131;-83
2021/05/14 00:01:02;;;;;;;5.85;4.95;;;13.00;88.20;;;;;;2071447;28;20104;-84
2021/05/14 00:02:03;;;;;;;6.25;5.18;;;13.00;88.20;;;;;;2070490;28;20036;-83
2021/05/14 00:03:04;;;;;;;7.15;4.80;;;13.10;88.20;;;;;;2070357;28;20502;-84
2021/05/14 00:04:05;;;;;;;5.32;4.50;;;13.00;88.20;;;;;;2064102;28;20026;-83
2021/05/14 00:05:08;;;;;;;5.63;4.75;;;13.10;88.20;;;;;;2063306;28;20042;-84
2021/05/14 00:06:08;;;;;;;5.72;4.53;;;13.10;88.20;;;;;;2064202;28;20037;-83
2021/05/14 00:07:09;;;;;;;5.63;4.75;;;13.10;88.20;;;;;;2048474;29;20839;-84
2021/05/14 00:08:09;;;;;;;5.10;4.47;;;13.00;88.20;;;;;;2062433;28;20026;-84
2021/05/14 00:09:10;;;;;;;6.28;4.70;;;13.00;88.20;;;;;;2064229;28;20041;-83
2021/05/14 00:10:12;;;;;;;5.45;4.57;;;13.00;88.20;;;;;;2063659;28;20085;-84
2021/05/14 00:11:13;;;;;;;5.22;4.65;;;13.00;88.20;;;;;;2063600;28;20030;-84
2021/05/14 00:12:13;;;;;;;6.40;5.03;;;13.10;88.20;;;;;;2072513;28;20397;-84
2021/05/14 00:13:14;;;;;;;5.93;4.90;;;13.10;88.20;;;;;;2075558;28;20029;-84
2021/05/14 00:14:15;;;;;;;6.30;5.20;;;13.10;88.20;;;;;;2072539;28;20029;-84
2021/05/14 00:15:17;;;;;;;6.68;4.97;;;13.00;88.20;;;;;;2071075;28;20029;-84
2021/05/14 00:16:18;;;;;;;5.65;4.80;;;13.00;88.20;;;;;;2062636;28;20404;-83
2021/05/14 00:17:19;;;;;;;6.88;5.30;;;13.00;88.20;;;;;;2055182;28;20023;-84
2021/05/14 00:18:19;;;;;;;6.05;5.13;;;13.10;88.20;;;;;;2062776;28;20086;-84
2021/05/14 00:19:20;;;;;;;5.80;4.85;;;13.00;88.20;;;;;;2071651;28;20030;-84
2021/05/14 00:20:20;;;;;;;6.15;5.00;;;13.00;88.20;;;;;;2064315;28;20023;-85
2021/05/14 00:21:21;;;;;;;6.40;5.10;;;13.00;88.20;;;;;;2063594;28;20077;-84
2021/05/14 00:22:22;;;;;;;5.63;4.90;;;13.00;88.30;;;;;;2071822;28;20029;-84
2021/05/14 00:23:23;;;;;;;5.85;4.88;;;13.00;88.30;;;;;;2066007;28;20027;-84
2021/05/14 00:24:24;;;;;;;5.40;4.70;;;13.00;88.30;;;;;;2050014;28;20102;-84
2021/05/14 00:25:25;;;;;;;6.18;4.93;;;13.00;88.30;;;;;;2059795;28;20011;-84
2021/05/14 00:26:26;;;;;;;6.38;5.20;;;13.00;88.30;;;;;;2072388;28;20046;-83
2021/05/14 00:27:27;;;;;;;5.53;4.85;;;13.00;88.30;;;;;;2070894;28;20508;-84
2021/05/14 00:28:27;;;;;;;6.35;4.75;;;13.00;88.30;;;;;;2072437;28;20101;-85
2021/05/14 00:29:28;;;;;;;5.80;5.07;;;13.00;88.30;;;;;;2065304;28;20092;-84
2021/05/14 00:30:29;;;;;;;6.00;5.07;;;13.00;88.40;;;;;;2060699;28;20023;-84
2021/05/14 00:31:30;;;;;;;6.53;5.07;;;13.00;88.40;;;;;;2079114;28;20104;-84
2021/05/14 00:32:30;;;;;;;6.57;5.47;;;13.00;88.40;;;;;;2065425;28;20504;-84
2021/05/14 00:33:31;;;;;;;5.30;4.75;;;13.00;88.50;;;;;;2069571;28;20109;-83
2021/05/14 00:34:32;;;;;;;7.10;5.30;;;13.00;88.40;;;;;;2065063;28;20034;-83
2021/05/14 00:35:32;;;;;;;6.28;5.43;;;13.00;88.50;;;;;;2062693;28;20026;-84
2021/05/14 00:36:33;;;;;;;6.00;4.85;;;13.00;88.40;;;;;;2057604;28;22166;-84
2021/05/14 00:37:34;;;;;;;6.18;5.13;;;13.00;88.40;;;;;;2072838;28;20042;-83
2021/05/14 00:38:36;;;;;;;6.82;6.00;;;13.00;88.50;;;;;;2065821;28;20516;-83
2021/05/14 00:39:36;;;;;;;6.53;5.43;;;13.00;88.50;;;;;;2072706;28;20476;-83
2021/05/14 00:40:37;;;;;;;6.10;5.43;;;13.00;88.60;;;;;;2073678;28;20038;-84
2021/05/14 00:41:38;;;;;;;6.72;5.72;;;13.00;88.60;;;;;;2065862;28;20037;-83
2021/05/14 00:42:38;;;;;;;6.88;5.85;;;13.00;88.60;;;;;;2073485;28;20042;-84
2021/05/14 00:43:39;;;;;;;6.80;5.70;;;13.00;88.60;;;;;;2082056;28;20026;-84
2021/05/14 00:44:45;;;;;;;8.02;6.22;;;12.90;88.60;;;;;;2072634;28;20133;-84
2021/05/14 00:45:46;;;;;;;6.70;5.97;;;13.00;88.60;;;;;;2068540;28;20048;-83
2021/05/14 00:46:47;;;;;;;7.00;6.10;;;12.90;88.50;;;;;;2066501;28;20513;-84
2021/05/14 00:47:47;;;;;;;6.90;6.15;;;12.90;88.50;;;;;;2055864;28;20114;-83
2021/05/14 00:48:48;;;;;;;6.72;6.03;;;12.90;88.50;;;;;;2056857;28;20078;-83
2021/05/14 00:49:49;;;;;;;7.28;6.30;;;12.90;88.60;;;;;;2058273;28;20186;-83
2021/05/14 00:50:50;;;;;;;7.63;6.47;;;12.90;89.20;;;;;;2043798;28;20042;-83
2021/05/14 00:51:53;;;;;;;8.30;6.45;;;12.90;88.60;;;;;;2061220;28;20030;-83
2021/05/14 00:52:54;;;;;;;7.68;6.72;;;12.90;88.70;;;;;;2071348;28;20480;-83
2021/05/14 00:53:54;;;;;;;7.57;6.75;;;12.90;88.70;;;;;;2081941;28;20056;-83
2021/05/14 00:54:55;;;;;;;7.88;6.70;;;12.90;88.80;;;;;;2073812;28;20436;-83
2021/05/14 00:55:56;;;;;;;7.78;6.95;;;12.90;88.80;;;;;;2073777;28;20476;-83
2021/05/14 00:56:58;;;;;;;8.02;7.22;;;12.90;88.70;;;;;;2076249;28;20026;-84
2021/05/14 00:57:59;;;;;;;7.78;6.80;;;12.90;88.70;;;;;;2076126;28;20053;-84
2021/05/14 00:58:59;;;;;;;8.80;6.90;;;12.90;88.70;;;;;;2074421;28;20045;-83
2021/05/14 01:00:00;;;;;;;7.85;7.05;;;12.80;88.70;;;;;;2066297;28;20031;-83
2021/05/14 01:01:01;;;;;;;8.45;7.22;;;12.80;88.70;;;;;;2071910;28;20386;-83
2021/05/14 01:02:02;;;;;;;8.32;7.32;;;12.80;88.80;;;;;;2060210;28;20050;-83
2021/05/14 01:03:03;;;;;;;8.40;7.47;;;12.90;88.80;;;;;;2074695;28;20073;-83
2021/05/14 01:04:04;;;;;;;7.97;7.18;;;12.80;89.40;;;;;;2070268;28;20037;-83
2021/05/14 01:05:05;;;;;;;7.95;7.13;;;12.80;88.70;;;;;;2065472;28;20121;-84
2021/05/14 01:06:06;;;;;;;8.32;7.43;;;12.90;88.80;;;;;;2076861;28;20029;-83
2021/05/14 01:07:07;;;;;;;8.30;7.25;;;12.90;88.80;;;;;;2072555;28;20045;-84
2021/05/14 01:08:08;;;;;;;8.70;7.63;;;12.90;88.80;;;;;;2057912;28;20031;-83
2021/05/14 01:09:09;;;;;;;8.23;7.35;;;12.90;88.90;;;;;;2072347;28;20033;-84
2021/05/14 01:10:10;;;;;;;9.18;7.88;;;12.90;88.80;;;;;;2078764;28;20097;-83
2021/05/14 01:11:11;;;;;;;8.50;7.63;;;12.90;88.80;;;;;;2057944;28;20779;-83
2021/05/14 01:12:12;;;;;;;8.82;7.82;;;12.90;88.70;;;;;;2058343;28;20399;-84
2021/05/14 01:13:13;;;;;;;8.95;7.78;;;12.90;88.70;;;;;;2066338;28;20785;-83
2021/05/14 01:14:14;;;;;;;8.25;7.45;;;12.90;88.70;;;;;;2073822;28;20026;-83
2021/05/14 01:15:15;;;;;;;9.20;7.80;;;12.90;88.70;;;;;;2074003;28;20088;-83
2021/05/14 01:16:16;;;;;;;10.20;8.00;;;12.90;88.80;;;;;;2073450;28;20032;-83
2021/05/14 01:17:16;;;;;;;9.38;8.32;;;12.90;88.80;;;;;;2073654;28;20328;-83
2021/05/14 01:18:17;;;;;;;9.27;7.65;;;12.90;88.90;;;;;;2067825;28;20546;-83
2021/05/14 01:19:17;;;;;;;8.80;7.70;;;12.90;88.80;;;;;;2073660;28;20030;-83
2021/05/14 01:20:18;;;;;;;8.38;7.30;;;12.90;88.80;;;;;;2080750;28;20080;-83
2021/05/14 01:21:19;;;;;;;8.85;7.93;;;12.90;88.90;;;;;;2073522;28;20053;-83
2021/05/14 01:22:20;;;;;;;9.25;8.15;;;12.80;88.80;;;;;;2071436;28;20595;-84
2021/05/14 01:23:20;;;;;;;8.77;7.75;;;12.90;88.90;;;;;;2071629;28;20124;-83
2021/05/14 01:24:21;;;;;;;9.38;8.38;;;12.80;88.90;;;;;;2066574;28;20046;-83
2021/05/14 01:25:22;;;;;;;9.15;7.93;;;12.80;89.00;;;;;;2080752;28;20104;-84
2021/05/14 01:26:25;;;;;;;9.52;8.43;;;12.80;89.00;;;;;;2073416;28;20114;-84
2021/05/14 01:27:26;;;;;;;9.68;8.60;;;12.80;89.00;;;;;;2066335;28;20619;-84
2021/05/14 01:28:27;;;;;;;9.65;8.15;;;12.80;89.10;;;;;;2074809;28;20036;-83
2021/05/14 01:29:28;;;;;;;9.07;8.15;;;12.80;89.10;;;;;;2066485;28;20118;-84
2021/05/14 01:30:28;;;;;;;9.68;8.65;;;12.80;89.20;;;;;;2067560;28;20392;-84
2021/05/14 01:31:29;;;;;;;10.35;8.88;;;12.80;89.20;;;;;;2065103;28;20393;-84
2021/05/14 01:32:30;;;;;;;9.88;8.70;;;12.80;89.20;;;;;;2065827;28;20054;-84
2021/05/14 01:33:31;;;;;;;9.80;8.05;;;12.80;89.20;;;;;;2074061;28;20026;-84
2021/05/14 01:34:32;;;;;;;11.07;9.52;;;12.80;89.20;;;;;;2074430;28;20089;-84
2021/05/14 01:35:32;;;;;;;10.50;8.77;;;12.80;89.10;;;;;;2073585;28;20084;-84
2021/05/14 01:36:39;;;;;;;10.68;9.18;;;12.80;89.10;;;;;;2078000;28;20127;-85
2021/05/14 01:37:41;;;;;;;10.15;9.15;;;12.80;89.20;;;;;;2061124;28;20033;-84
2021/05/14 01:38:42;;;;;;;10.50;9.40;;;12.80;89.20;;;;;;2072418;28;20030;-84
2021/05/14 01:39:43;;;;;;;10.25;9.15;;;12.80;89.20;;;;;;2073322;28;20030;-84
2021/05/14 01:40:44;;;;;;;10.60;9.38;;;12.80;89.20;;;;;;2073353;28;20026;-84
2021/05/14 01:41:44;;;;;;;10.68;9.50;;;12.80;89.20;;;;;;2064069;28;20026;-84
2021/05/14 01:42:49;;;;;;;10.20;9.13;;;12.80;89.10;;;;;;2049370;28;20031;-84
2021/05/14 01:43:50;;;;;;;10.25;9.23;;;12.80;89.10;;;;;;2065948;28;20137;-84
2021/05/14 01:44:50;;;;;;;10.02;9.00;;;12.70;89.10;;;;;;2073555;28;20042;-84
2021/05/14 01:45:51;;;;;;;10.30;8.75;;;12.80;89.20;;;;;;2073305;28;20419;-84
2021/05/14 01:46:52;;;;;;;10.60;9.48;;;12.80;89.20;;;;;;2065526;28;20068;-83
2021/05/14 01:47:53;;;;;;;10.48;9.10;;;12.70;89.20;;;;;;2065446;28;20046;-84
2021/05/14 01:48:54;;;;;;;10.52;9.43;;;12.70;89.20;;;;;;2064639;28;20528;-84
2021/05/14 01:49:55;;;;;;;10.25;8.93;;;12.70;89.20;;;;;;2063940;28;20449;-83
2021/05/14 01:50:58;;;;;;;13.35;10.18;;;12.70;89.20;;;;;;2067643;28;22421;-84
2021/05/14 01:51:59;;;;;;;11.27;9.50;;;12.70;89.20;;;;;;2070500;28;20030;-84
2021/05/14 01:52:59;;;;;;;10.35;9.25;;;12.70;89.20;;;;;;2063500;28;20401;-84
2021/05/14 01:54:00;;;;;;;10.95;9.55;;;12.70;89.20;;;;;;2066645;28;20037;-85
2021/05/14 01:55:03;;;;;;;11.32;9.88;;;12.70;89.30;;;;;;2073168;28;20026;-84
2021/05/14 01:56:04;;;;;;;11.02;9.57;;;12.70;89.30;;;;;;2080855;28;20103;-83
2021/05/14 01:57:05;;;;;;;11.35;10.15;;;12.70;89.40;;;;;;2078301;28;20499;-84
2021/05/14 01:58:06;;;;;;;11.23;9.80;;;12.70;89.40;;;;;;2061487;28;20473;-83
2021/05/14 01:59:06;;;;;;;10.68;9.48;;;12.70;89.40;;;;;;2055640;28;20031;-84
2021/05/14 02:00:08;;;;;;;11.52;10.32;;;12.70;89.50;;;;;;2073067;28;20165;-84
2021/05/14 02:01:09;;;;;;;11.98;10.68;;;12.70;89.50;;;;;;2072011;28;20506;-84
2021/05/14 02:02:10;;;;;;;11.25;10.05;;;12.60;89.50;;;;;;2057274;28;20026;-84
2021/05/14 02:03:10;;;;;;;11.25;10.10;;;12.60;89.50;;;;;;2064636;28;20031;-83
2021/05/14 02:04:11;;;;;;;11.43;10.25;;;12.60;89.50;;;;;;2048822;28;20031;-84
2021/05/14 02:05:12;;;;;;;11.43;10.23;;;12.60;89.60;;;;;;2055431;28;20063;-83
2021/05/14 02:06:14;;;;;;;11.45;10.30;;;12.60;89.60;;;;;;2065219;28;20030;-83
2021/05/14 02:07:15;;;;;;;11.98;10.45;;;12.60;89.60;;;;;;2069377;28;20080;-83
2021/05/14 02:08:16;;;;;;;12.35;10.77;;;12.60;89.60;;;;;;2079142;28;20375;-84
2021/05/14 02:09:16;;;;;;;12.40;11.10;;;12.60;89.60;;;;;;2079470;28;20173;-83
2021/05/14 02:10:18;;;;;;;11.60;10.38;;;12.60;90.00;;;;;;2072252;28;20022;-84
2021/05/14 02:11:18;;;;;;;12.45;10.73;;;12.60;89.50;;;;;;2057148;28;20507;-83
2021/05/14 02:12:19;;;;;;;12.07;10.45;;;12.60;89.50;;;;;;2065137;28;20022;-84
2021/05/14 02:13:20;;;;;;;11.77;10.52;;;12.60;89.50;;;;;;2072982;28;20022;-83
2021/05/14 02:14:20;;;;;;;12.27;10.48;;;12.60;89.60;;;;;;2078821;28;20013;-83
2021/05/14 02:15:21;;;;;;;11.77;10.57;;;12.60;89.60;;;;;;2064673;28;20131;-83
2021/05/14 02:16:22;;;;;;;12.75;11.45;;;12.60;89.60;;;;;;2073152;28;20034;-84
2021/05/14 02:17:22;;;;;;;12.63;11.32;;;12.60;90.00;;;;;;2064904;28;20189;-84
2021/05/14 02:18:24;;;;;;;12.80;11.48;;;12.60;89.60;;;;;;2071394;28;20022;-83
2021/05/14 02:19:25;;;;;;;12.75;11.45;;;12.60;89.70;;;;;;2085465;28;20025;-84
2021/05/14 02:20:26;;;;;;;12.70;11.35;;;12.50;90.10;;;;;;2073093;28;20048;-83
2021/05/14 02:21:27;;;;;;;13.65;11.93;;;12.60;89.70;;;;;;2081209;28;20112;-84
2021/05/14 02:22:27;;;;;;;12.95;11.55;;;12.50;89.60;;;;;;2081409;28;20395;-84
2021/05/14 02:23:28;;;;;;;12.85;11.45;;;12.50;89.60;;;;;;2072145;28;20108;-84
2021/05/14 02:24:29;;;;;;;13.48;12.07;;;12.50;89.60;;;;;;2068149;28;20045;-84
2021/05/14 02:25:29;;;;;;;13.88;12.40;;;12.50;89.60;;;;;;2061791;28;20045;-84
2021/05/14 02:26:30;;;;;;;13.55;11.93;;;12.50;89.60;;;;;;2071704;28;20101;-84
2021/05/14 02:27:32;;;;;;;13.45;11.57;;;12.50;89.70;;;;;;2076768;28;20052;-84
2021/05/14 02:28:34;;;;;;;13.93;12.43;;;12.50;89.70;;;;;;2072098;28;20026;-84
2021/05/14 02:29:34;;;;;;;13.43;12.02;;;12.50;89.70;;;;;;2072359;28;20079;-83
2021/05/14 02:30:36;;;;;;;12.98;11.65;;;12.50;89.70;;;;;;2066347;28;20081;-84
2021/05/14 02:31:37;;;;;;;13.68;12.05;;;12.50;89.70;;;;;;2064317;28;20029;-84
2021/05/14 02:32:37;;;;;;;13.18;11.60;;;12.50;89.70;;;;;;2064232;28;20077;-84
2021/05/14 02:33:38;;;;;;;15.80;12.30;;;12.50;89.70;;;;;;2062675;28;20108;-84
2021/05/14 02:34:39;;;;;;;13.32;11.90;;;12.50;89.60;;;;;;2060405;28;20023;-84
2021/05/14 02:35:40;;;;;;;12.43;11.05;;;12.50;89.60;;;;;;2072702;28;20029;-83
2021/05/14 02:36:41;;;;;;;13.32;11.93;;;12.60;89.60;;;;;;2067880;28;20448;-84
2021/05/14 02:37:42;;;;;;;13.40;12.00;;;12.60;89.60;;;;;;2063914;28;20049;-84
2021/05/14 02:38:43;;;;;;;13.13;11.70;;;12.60;89.60;;;;;;2076864;28;20028;-83
2021/05/14 02:39:43;;;;;;;13.25;11.85;;;12.60;89.60;;;;;;2072245;28;20041;-83
2021/05/14 02:40:44;;;;;;;13.40;11.98;;;12.60;89.50;;;;;;2072620;28;20034;-84
2021/05/14 02:41:45;;;;;;;13.05;11.55;;;12.60;89.50;;;;;;2066207;28;20035;-83
2021/05/14 02:42:45;;;;;;;13.65;12.20;;;12.60;89.50;;;;;;2056806;28;20113;-83
2021/05/14 02:43:46;;;;;;;13.55;12.15;;;12.60;89.50;;;;;;2055697;28;20034;-83
2021/05/14 02:44:47;;;;;;;13.60;12.18;;;12.60;89.50;;;;;;2056479;28;20042;-84
2021/05/14 02:45:48;;;;;;;13.55;12.07;;;12.60;89.60;;;;;;2061139;28;20054;-84
2021/05/14 02:46:48;;;;;;;13.27;11.82;;;12.60;89.60;;;;;;2056402;28;20101;-84
2021/05/14 02:47:49;;;;;;;14.00;12.50;;;12.60;89.50;;;;;;2064716;28;20031;-84
2021/05/14 02:48:50;;;;;;;13.32;11.93;;;12.60;89.50;;;;;;2065577;28;20586;-84
2021/05/14 02:49:50;;;;;;;13.25;11.73;;;12.60;89.50;;;;;;2074284;28;20461;-84
2021/05/14 02:50:51;;;;;;;13.35;11.73;;;12.60;89.50;;;;;;2076801;28;20494;-84
2021/05/14 02:51:51;;;;;;;13.45;11.82;;;12.50;89.50;;;;;;2064887;28;20034;-84
2021/05/14 02:52:52;;;;;;;14.15;12.32;;;12.50;89.60;;;;;;2055300;28;20039;-84
2021/05/14 02:53:53;;;;;;;13.63;12.10;;;12.50;89.60;;;;;;2063956;28;20036;-84
2021/05/14 02:54:53;;;;;;;13.82;12.32;;;12.50;89.60;;;;;;2072256;28;20058;-84
2021/05/14 02:55:54;;;;;;;14.07;12.52;;;12.50;89.60;;;;;;2071675;28;20030;-84
2021/05/14 02:56:55;;;;;;;13.88;12.40;;;12.50;89.70;;;;;;2068538;28;20093;-84
2021/05/14 02:57:55;;;;;;;13.77;12.30;;;12.50;89.60;;;;;;2056731;28;20571;-84
2021/05/14 02:58:56;;;;;;;13.73;12.15;;;12.50;89.70;;;;;;2060660;28;20038;-83
2021/05/14 02:59:57;;;;;;;14.30;12.35;;;12.50;89.70;;;;;;2072892;28;20025;-84
2021/05/14 03:00:58;;;;;;;13.27;11.80;;;12.50;89.70;;;;;;2080233;28;20068;-84
2021/05/14 03:01:59;;;;;;;14.02;12.52;;;12.50;89.70;;;;;;2080577;28;20441;-84
2021/05/14 03:02:59;;;;;;;15.60;12.80;;;12.50;89.70;;;;;;2072925;28;20088;-85
2021/05/14 03:04:01;;;;;;;14.25;12.52;;;12.50;89.60;;;;;;2063713;28;20497;-84
2021/05/14 03:05:03;;;;;;;13.93;12.45;;;12.50;89.60;;;;;;2073117;28;20038;-84
2021/05/14 03:06:03;;;;;;;14.23;12.45;;;12.50;89.60;;;;;;2071080;28;20026;-84
2021/05/14 03:07:04;;;;;;;15.35;12.93;;;12.40;89.60;;;;;;2072107;28;20076;-84
2021/05/14 03:08:05;;;;;;;13.90;12.40;;;12.50;89.60;;;;;;2076506;28;20025;-84
2021/05/14 03:09:06;;;;;;;13.45;12.05;;;12.50;89.60;;;;;;2073076;28;20113;-84
2021/05/14 03:10:07;;;;;;;13.82;12.25;;;12.40;89.70;;;;;;2056416;28;20469;-84
2021/05/14 03:11:08;;;;;;;13.82;12.35;;;12.40;89.70;;;;;;2055237;28;20038;-84
2021/05/14 03:12:09;;;;;;;14.27;12.73;;;12.40;89.70;;;;;;2064826;28;20026;-85
2021/05/14 03:13:09;;;;;;;14.02;12.55;;;12.40;89.80;;;;;;2071736;28;20022;-85
2021/05/14 03:14:10;;;;;;;14.88;12.73;;;12.40;89.80;;;;;;2068974;28;20030;-84
2021/05/14 03:15:11;;;;;;;13.95;12.32;;;12.40;89.80;;;;;;2072865;28;20030;-85
2021/05/14 03:16:12;;;;;;;13.70;12.15;;;12.40;89.80;;;;;;2072164;28;20030;-85
2021/05/14 03:17:13;;;;;;;13.05;11.65;;;12.40;89.90;;;;;;2055717;28;20512;-84
2021/05/14 03:18:13;;;;;;;13.18;11.63;;;12.40;90.10;;;;;;2048632;29;20528;-85
2021/05/14 03:19:14;;;;;;;13.85;12.43;;;12.40;89.90;;;;;;2058482;28;20531;-84
2021/05/14 03:20:15;;;;;;;14.38;12.20;;;12.40;90.00;;;;;;2064337;28;20652;-85
2021/05/14 03:21:15;;;;;;;13.43;12.00;;;12.40;90.00;;;;;;2072699;28;20555;-85
2021/05/14 03:22:16;;;;;;;15.27;12.60;;;12.40;90.00;;;;;;2063387;28;20093;-83
2021/05/14 03:23:17;;;;;;;14.15;12.23;;;12.40;90.00;;;;;;2055118;28;20386;-85
2021/05/14 03:24:19;;;;;;;13.45;12.05;;;12.40;90.00;;;;;;2064572;28;20432;-85
2021/05/14 03:25:20;;;;;;;13.85;12.35;;;12.40;90.00;;;;;;2064753;28;20377;-85
2021/05/14 03:26:20;;;;;;;14.30;12.80;;;12.40;90.00;;;;;;2072585;28;20028;-84
2021/05/14 03:27:21;;;;;;;14.02;12.48;;;12.40;90.00;;;;;;2063726;28;20031;-84
2021/05/14 03:28:22;;;;;;;14.40;12.30;;;12.40;90.00;;;;;;2064630;28;20504;-85
2021/05/14 03:29:23;;;;;;;13.32;11.85;;;12.40;90.00;;;;;;2070570;28;20022;-84
2021/05/14 03:30:23;;;;;;;13.20;11.77;;;12.40;90.00;;;;;;2070778;28;20029;-84
2021/05/14 03:31:24;;;;;;;13.20;11.82;;;12.40;90.00;;;;;;2072981;28;20037;-84
2021/05/14 03:32:24;;;;;;;12.88;11.57;;;12.40;90.00;;;;;;2063520;28;20100;-84
2021/05/14 03:33:25;;;;;;;14.43;12.38;;;12.30;89.90;;;;;;2064087;28;20061;-84
2021/05/14 03:34:26;;;;;;;13.60;11.98;;;12.40;90.00;;;;;;2071628;28;20021;-83
2021/05/14 03:35:27;;;;;;;13.68;12.15;;;12.40;90.20;;;;;;2066534;28;20023;-84
2021/05/14 03:36:27;;;;;;;13.38;12.00;;;12.30;90.00;;;;;;2069919;28;20029;-84
2021/05/14 03:37:28;;;;;;;13.52;12.13;;;12.40;90.00;;;;;;2071351;28;20034;-84
2021/05/14 03:38:33;;;;;;;13.75;12.25;;;12.40;90.00;;;;;;2068910;28;20062;-84
2021/05/14 03:39:44;;;;;;;12.95;11.65;;;12.30;89.90;;;;;;2085673;28;20021;-84
2021/05/14 03:40:45;;;;;;;13.27;11.80;;;12.30;89.90;;;;;;2080772;28;20072;-85
2021/05/14 03:43:05;;;;;;;12.40;10.93;;;12.30;89.90;;;;;;2060710;28;20121;-84
2021/05/14 03:44:05;;;;;;;13.13;11.73;;;12.30;90.00;;;;;;2069444;28;20023;-84
2021/05/14 03:45:07;;;;;;;12.85;11.45;;;12.30;90.00;;;;;;2063843;28;20458;-85
2021/05/14 03:46:07;;;;;;;12.13;10.82;;;12.30;90.00;;;;;;2063816;28;20041;-85
2021/05/14 03:47:09;;;;;;;13.30;10.93;;;12.30;90.00;;;;;;2064520;28;20198;-85
2021/05/14 03:48:19;;;;;;;13.40;11.98;;;12.30;90.00;;;;;;2064637;28;20030;-84
2021/05/14 03:49:19;;;;;;;12.90;11.50;;;12.30;90.00;;;;;;2059490;28;20050;-85
2021/05/14 03:50:20;;;;;;;12.65;11.35;;;12.30;90.00;;;;;;2057285;28;20122;-85
2021/05/14 03:51:21;;;;;;;13.27;11.45;;;12.40;90.00;;;;;;2070940;28;20030;-85
2021/05/14 03:52:22;;;;;;;12.48;11.18;;;12.40;90.00;;;;;;2080830;28;20466;-85
2021/05/14 03:53:23;;;;;;;12.52;11.23;;;12.40;90.00;;;;;;2071215;28;20037;-85
2021/05/14 03:54:24;;;;;;;12.23;10.93;;;12.40;90.00;;;;;;2072486;28;20018;-85
2021/05/14 03:55:25;;;;;;;12.75;11.45;;;12.40;90.30;;;;;;2064715;28;20073;-85
2021/05/14 03:56:25;;;;;;;12.98;11.68;;;12.40;90.00;;;;;;2054474;28;20065;-85
2021/05/14 03:57:26;;;;;;;12.65;11.02;;;12.40;90.00;;;;;;2064497;28;20038;-85
2021/05/14 03:58:27;;;;;;;12.43;11.13;;;12.40;90.30;;;;;;2064638;28;20094;-85
2021/05/14 03:59:28;;;;;;;12.80;11.43;;;12.40;90.00;;;;;;2067336;28;20133;-84
2021/05/14 04:00:29;;;;;;;13.68;12.18;;;12.40;90.00;;;;;;2072621;28;20034;-84
2021/05/14 04:01:29;;;;;;;13.18;10.88;;;12.40;90.00;;;;;;2063736;28;20113;-84
2021/05/14 04:02:30;;;;;;;12.73;11.43;;;12.40;90.00;;;;;;2064007;28;20140;-83
2021/05/14 04:03:31;;;;;;;12.43;11.13;;;12.40;90.00;;;;;;2072353;28;20500;-84
2021/05/14 04:04:32;;;;;;;13.02;11.07;;;12.40;90.00;;;;;;2064157;28;20497;-83
2021/05/14 04:05:35;;;;;;;13.05;11.25;;;12.40;90.00;;;;;;2070585;28;20444;-84
2021/05/14 04:06:36;;;;;;;13.30;11.65;;;12.40;90.00;;;;;;2073231;28;20121;-84
2021/05/14 04:07:37;;;;;;;12.32;10.82;;;12.40;90.00;;;;;;2059325;28;20035;-83
2021/05/14 04:08:37;;;;;;;12.60;10.95;;;12.50;90.00;;;;;;2057764;28;20035;-83
2021/05/14 04:09:40;;;;;;;13.57;11.38;;;12.40;90.00;;;;;;2072073;28;20065;-83
2021/05/14 04:15:40;;;;;;;12.18;9.77;;;12.50;90.00;;;;;;2048552;29;20039;-84
2021/05/14 04:16:41;;;;;;;10.65;9.30;;;12.40;89.90;;;;;;2042990;29;20060;-83
2021/05/14 04:17:42;;;;;;;11.65;10.00;;;12.40;89.90;;;;;;2041729;29;20035;-84
2021/05/14 04:18:42;;;;;;;11.40;10.15;;;12.40;89.90;;;;;;2040338;29;20048;-83
2021/05/14 04:19:43;;;;;;;11.05;9.82;;;12.40;89.90;;;;;;2045315;29;20027;-83
2021/05/14 04:20:45;;;;;;;11.45;10.02;;;12.40;89.90;;;;;;2048144;29;20122;-84
2021/05/14 04:21:45;;;;;;;10.75;9.65;;;12.40;89.90;;;;;;2071699;28;20093;-84
2021/05/14 04:22:46;;;;;;;10.80;9.57;;;12.40;90.00;;;;;;2074099;28;20033;-84
2021/05/14 04:23:47;;;;;;;10.73;9.63;;;12.40;90.00;;;;;;2074279;28;20503;-83
2021/05/14 04:24:47;;;;;;;11.02;9.75;;;12.40;90.00;;;;;;2073688;28;20042;-84
2021/05/14 04:25:49;;;;;;;11.15;9.73;;;12.40;90.00;;;;;;2064815;28;20030;-84
2021/05/14 04:26:54;;;;;;;11.15;9.43;;;12.40;90.00;;;;;;2073509;28;20060;-83
2021/05/14 04:27:55;;;;;;;11.48;9.85;;;12.40;90.00;;;;;;2081727;28;20412;-83
2021/05/14 04:28:55;;;;;;;10.90;9.80;;;12.40;90.00;;;;;;2058504;28;20038;-83
2021/05/14 04:29:56;;;;;;;10.82;9.65;;;12.40;90.00;;;;;;2057122;28;20031;-83
2021/05/14 04:30:56;;;;;;;10.63;9.38;;;12.40;90.00;;;;;;2072361;28;20040;-83
2021/05/14 04:31:57;;;;;;;10.88;9.68;;;12.40;90.00;;;;;;2082220;28;20048;-83
2021/05/14 04:32:59;;;;;;;10.32;9.25;;;12.40;90.00;;;;;;2081948;28;20149;-84
2021/05/14 04:33:59;;;;;;;10.48;9.30;;;12.40;90.00;;;;;;2081975;28;20025;-83
2021/05/14 04:35:00;;;;;;;10.90;9.60;;;12.40;90.00;;;;;;2062409;28;20026;-83
2021/05/14 04:36:03;;;;;;;10.60;9.18;;;12.40;90.00;;;;;;2064903;28;20058;-83
2021/05/14 04:37:03;;;;;;;11.05;9.20;;;12.40;90.00;;;;;;2057018;28;20505;-83
2021/05/14 04:38:04;;;;;;;11.70;10.15;;;12.40;90.00;;;;;;2068305;28;20662;-83
2021/05/14 04:39:07;;;;;;;10.35;9.07;;;12.40;90.00;;;;;;2064874;28;20063;-84
2021/05/14 04:40:08;;;;;;;11.43;9.73;;;12.40;90.00;;;;;;2064884;28;20033;-84
2021/05/14 04:41:09;;;;;;;11.07;9.90;;;12.40;89.90;;;;;;2081986;28;20041;-84
2021/05/14 04:42:09;;;;;;;10.85;9.35;;;12.40;90.00;;;;;;2073961;28;20078;-83
2021/05/14 04:43:10;;;;;;;10.35;9.15;;;12.50;90.00;;;;;;2065244;28;20073;-83
2021/05/14 04:44:11;;;;;;;10.00;9.00;;;12.50;89.90;;;;;;2065545;28;20070;-83
2021/05/14 04:45:13;;;;;;;9.90;8.70;;;12.40;89.80;;;;;;2073079;28;20100;-83
2021/05/14 04:46:13;;;;;;;10.73;9.40;;;12.50;89.80;;;;;;2074433;28;20029;-83
2021/05/14 04:47:14;;;;;;;11.25;9.50;;;12.50;89.80;;;;;;2073319;28;20118;-83
2021/05/14 04:48:15;;;;;;;10.60;9.50;;;12.50;89.80;;;;;;2066445;28;20037;-83
2021/05/14 04:49:15;;;;;;;11.00;9.57;;;12.50;89.70;;;;;;2063901;28;20551;-84
2021/05/14 04:50:18;;;;;;;9.80;8.80;;;12.50;89.70;;;;;;2065461;28;20022;-83
2021/05/14 04:51:20;;;;;;;11.95;9.10;;;12.50;90.00;;;;;;2081412;28;20037;-83
2021/05/14 04:52:24;;;;;;;11.15;8.75;;;12.50;89.60;;;;;;2078200;28;20017;-82
2021/05/14 04:53:30;;;;;;;9.82;8.82;;;12.50;89.60;;;;;;2081596;28;20029;-83
2021/05/14 04:54:31;;;;;;;11.25;9.23;;;12.50;89.50;;;;;;2074496;28;20088;-83
2021/05/14 04:55:32;;;;;;;10.18;9.00;;;12.60;89.60;;;;;;2072848;28;20066;-82
2021/05/14 04:56:33;;;;;;;9.70;8.40;;;12.60;89.50;;;;;;2073969;28;20064;-83
2021/05/14 04:57:33;;;;;;;10.95;9.02;;;12.60;89.50;;;;;;2081618;28;20467;-83
2021/05/14 04:58:34;;;;;;;10.30;9.23;;;12.60;89.50;;;;;;2081478;28;20037;-83
2021/05/14 04:59:35;;;;;;;11.13;8.93;;;12.60;89.50;;;;;;2070905;28;20027;-81
2021/05/14 05:00:35;;;;;;;10.70;9.20;;;12.60;89.50;;;;;;2071053;28;20077;-83
2021/05/14 05:01:36;;;;;;;10.77;9.25;;;12.60;89.40;;;;;;2064434;28;20555;-82
2021/05/14 05:02:37;;;;;;;11.10;8.55;;;12.60;89.40;;;;;;2062129;28;20034;-82
2021/05/14 05:03:38;;;;;;;10.77;9.15;;;12.60;89.40;;;;;;2073701;28;20018;-83
2021/05/14 05:04:39;;;;;;;10.35;8.98;;;12.60;89.40;;;;;;2072762;28;20542;-82
2021/05/14 05:05:40;;;;;;;10.35;9.13;;;12.60;89.40;;;;;;2078990;28;20030;-82
2021/05/14 05:06:41;;;;;;;11.15;9.75;;;12.60;89.40;;;;;;2072372;28;20048;-83
2021/05/14 05:07:42;;;;;;;11.80;9.77;;;12.60;89.30;;;;;;2064297;28;20042;-83
2021/05/14 05:08:42;;;;;;;12.02;9.95;;;12.60;89.40;;;;;;2062301;28;20511;-83
2021/05/14 05:09:43;;;;;;;10.88;9.68;;;12.60;89.30;;;;;;2079136;28;20033;-83
2021/05/14 05:10:44;;;;;;;11.15;9.70;;;12.60;89.90;;;;;;2072989;28;20022;-82
2021/05/14 05:11:44;;;;;;;11.05;9.38;;;12.60;89.40;;;;;;2074221;28;20054;-83
2021/05/14 05:12:45;;;;;;;12.25;10.18;;;12.60;89.60;;;;;;2075577;28;20033;-83
2021/05/14 05:13:46;;;;;;;11.07;9.88;;;12.60;89.30;;;;;;2065902;28;20106;-82
2021/05/14 05:14:47;;;;;;;11.88;9.82;;;12.60;89.30;;;;;;2064420;28;20534;-83
2021/05/14 05:15:48;;;;;;;10.48;9.38;;;12.70;90.00;;;;;;2064365;28;20089;-83
2021/05/14 05:16:49;;;;;;;11.60;10.18;;;12.70;89.40;;;;;;2071063;28;20674;-82
2021/05/14 05:17:49;;;;;;;11.88;10.20;;;12.70;89.30;;;;;;2072040;28;20026;-82
2021/05/14 05:18:50;;;;;;;11.68;9.60;;;12.70;89.30;;;;;;2080655;28;20072;-82